Terminal Aerodrome Forecast
Issued by NWS Charleston, WV

Home | Current Version | Previous Version | Text Only | Print | Product List | Glossary On
Versions: 1 2 3 4 5 6 7 8 9 10 11 12 13 14 15 16 17 18 19 20 21 22 23 24 25 26 27 28 29 30 31 32 33 34 35
000
FTUS41 KRLX 311100
TAFCRW
TAF
KCRW 311120Z 3112/0112 00000KT 1/4SM FG BKN001
      TEMPO 3112/3113 4SM BR SCT002
     FM311300 00000KT 6SM BR HZ SCT005 BKN250
     FM311400 VRB03KT P6SM SCT040
     FM312100 VRB03KT P6SM SCT100
     FM011100 00000KT 4SM BR BKN060=

USA.gov is the U.S. government's official web portal to all federal, state and local government web resources and services.